Time;durP1;ratioP1;P1;durP2;ratioP2;P2;SDS_P1;SDS_P2;PMS_P1;PMS_P2;Temp;Humidity;BMP_temperature;BMP_pressure;BME280_temperature;BME280_humidity;BME280_pressure;Samples;Min_cycle;Max_cycle;Signal;HPM_P1;HPM_P2
2023/06/10 00:01:47;;;;;;;9.27;7.15;;;;;;;19.13;51.18;101307.97;5032644;28;20029;-80
2023/06/10 00:04:16;;;;;;;7.55;6.85;;;;;;;19.13;50.67;101305.25;5034537;28;20060;-80
2023/06/10 00:06:43;;;;;;;9.13;7.32;;;;;;;19.09;50.79;101306.81;5044256;28;20112;-80
2023/06/10 00:09:10;;;;;;;9.90;7.03;;;;;;;19.10;50.34;101313.94;5031291;28;20474;-80
2023/06/10 00:11:36;;;;;;;10.25;6.80;;;;;;;19.03;50.40;101307.81;5031195;28;20036;-81
2023/06/10 00:14:01;;;;;;;10.48;7.07;;;;;;;18.97;50.70;101303.31;5034246;28;20018;-80
2023/06/10 00:16:26;;;;;;;7.93;6.07;;;;;;;18.92;50.72;101298.53;5033479;28;20492;-81
2023/06/10 00:18:52;;;;;;;9.02;6.80;;;;;;;18.92;50.55;101309.47;5031988;28;20025;-81
2023/06/10 00:21:18;;;;;;;7.63;6.50;;;;;;;18.84;51.09;101305.22;5032824;28;20040;-81
2023/06/10 00:23:44;;;;;;;6.63;5.90;;;;;;;18.82;50.83;101306.50;5051203;23;20064;-81
2023/06/10 00:26:10;;;;;;;8.80;6.50;;;;;;;18.77;51.07;101307.22;5029631;28;20100;-81
2023/06/10 00:28:35;;;;;;;8.80;6.38;;;;;;;18.66;51.01;101295.28;5032311;28;20025;-81
2023/06/10 00:31:01;;;;;;;12.25;7.13;;;;;;;18.67;51.17;101301.59;5032393;28;20021;-81
2023/06/10 00:33:26;;;;;;;10.40;7.15;;;;;;;18.62;51.25;101305.03;5030786;28;20135;-81
2023/06/10 00:35:53;;;;;;;7.20;6.32;;;;;;;18.58;51.41;101307.41;5029998;28;20029;-81
2023/06/10 00:38:24;;;;;;;8.90;6.68;;;;;;;18.51;51.54;101309.44;5032854;28;20029;-81
2023/06/10 00:40:49;;;;;;;7.60;6.40;;;;;;;18.44;51.73;101309.53;5030365;28;20531;-81
2023/06/10 00:43:15;;;;;;;12.13;7.15;;;;;;;18.38;52.20;101315.13;5032160;28;20033;-81
2023/06/10 00:45:40;;;;;;;8.43;7.38;;;;;;;18.29;52.34;101307.31;5031643;28;20039;-81
2023/06/10 00:48:06;;;;;;;9.68;6.53;;;;;;;18.25;52.49;101313.47;5030563;28;20021;-81
2023/06/10 00:50:31;;;;;;;8.70;6.88;;;;;;;18.20;52.50;101306.00;5031544;28;20018;-81
2023/06/10 00:52:57;;;;;;;8.73;7.13;;;;;;;18.17;52.84;101314.66;5015341;28;20492;-81
2023/06/10 00:55:23;;;;;;;7.15;6.05;;;;;;;18.16;52.85;101315.72;5012437;28;20028;-81
2023/06/10 00:57:49;;;;;;;7.97;6.30;;;;;;;18.08;52.91;101307.91;4996919;28;20025;-80
2023/06/10 01:00:15;;;;;;;9.95;6.50;;;;;;;18.07;53.25;101317.13;4997700;28;20535;-81
2023/06/10 01:02:41;;;;;;;9.88;6.35;;;;;;;17.97;53.33;101309.50;5027758;28;20033;-81
2023/06/10 01:05:06;;;;;;;9.07;6.70;;;;;;;17.95;53.94;101309.75;5026082;28;20075;-81
2023/06/10 01:07:43;;;;;;;8.80;6.40;;;;;;;17.92;53.77;101306.66;4995476;28;20026;-81
2023/06/10 01:10:20;;;;;;;7.30;6.55;;;;;;;17.91;53.70;101318.66;5014252;28;20083;-81
2023/06/10 01:12:50;;;;;;;11.52;7.18;;;;;;;17.85;54.36;101321.22;5006258;28;20045;-81
2023/06/10 01:15:16;;;;;;;10.23;6.57;;;;;;;17.80;54.35;101317.56;5019472;28;20026;-81
2023/06/10 01:17:57;;;;;;;11.73;6.55;;;;;;;17.79;54.63;101315.91;5022251;28;20057;-81
2023/06/10 01:20:24;;;;;;;9.70;6.80;;;;;;;17.77;54.50;101316.13;5020665;28;20212;-80
2023/06/10 01:22:50;;;;;;;9.23;6.72;;;;;;;17.73;54.79;101318.47;5024344;28;20401;-81
2023/06/10 01:25:17;;;;;;;9.25;6.05;;;;;;;17.70;54.92;101320.84;5030648;28;20779;-81
2023/06/10 01:27:44;;;;;;;8.35;6.80;;;;;;;17.61;55.42;101323.06;5030044;28;20017;-81
2023/06/10 01:30:15;;;;;;;9.90;6.57;;;;;;;17.61;55.47;101320.34;5030917;28;20495;-81
2023/06/10 01:32:44;;;;;;;10.15;6.22;;;;;;;17.61;55.51;101331.25;5012747;28;20021;-81
2023/06/10 01:35:10;;;;;;;10.32;6.50;;;;;;;17.58;55.79;101328.97;5024939;28;20030;-81
2023/06/10 01:37:35;;;;;;;7.15;6.07;;;;;;;17.56;55.74;101333.81;5013329;28;20083;-81
2023/06/10 01:40:05;;;;;;;10.10;7.10;;;;;;;17.51;56.00;101325.53;4994606;28;20029;-81
2023/06/10 01:42:31;;;;;;;10.88;6.57;;;;;;;17.49;56.42;101327.63;5014359;28;20030;-81
2023/06/10 01:44:57;;;;;;;9.18;6.72;;;;;;;17.46;56.34;101330.84;4997685;28;20087;-81
2023/06/10 01:47:22;;;;;;;11.68;6.45;;;;;;;17.39;56.56;101329.03;5030142;28;20025;-81
2023/06/10 01:49:47;;;;;;;9.48;6.72;;;;;;;17.32;56.61;101330.19;5030194;28;20082;-81
2023/06/10 01:52:13;;;;;;;9.82;6.40;;;;;;;17.26;56.84;101331.94;5031097;28;20025;-81
2023/06/10 01:54:38;;;;;;;8.95;6.60;;;;;;;17.19;57.46;101334.75;5030516;28;20376;-81
2023/06/10 01:57:06;;;;;;;8.68;6.70;;;;;;;17.15;57.82;101327.28;5028116;28;20036;-81
2023/06/10 01:59:31;;;;;;;12.43;6.68;;;;;;;17.06;57.79;101327.59;5028526;28;20377;-78
2023/06/10 02:01:56;;;;;;;8.23;6.50;;;;;;;17.04;57.92;101332.44;5014806;28;20029;-78
2023/06/10 02:04:22;;;;;;;10.30;6.55;;;;;;;16.96;58.45;101325.41;5026616;28;20078;-78
2023/06/10 02:06:48;;;;;;;10.02;6.20;;;;;;;16.90;58.49;101336.34;5024128;28;20041;-79
2023/06/10 02:09:13;;;;;;;9.18;6.43;;;;;;;16.81;58.80;101330.38;5021236;28;20381;-78
2023/06/10 02:11:39;;;;;;;9.77;6.85;;;;;;;16.80;59.07;101332.25;5028924;28;20351;-78
2023/06/10 02:14:04;;;;;;;8.77;5.70;;;;;;;16.74;59.17;101329.63;5031413;28;20035;-78
2023/06/10 02:16:31;;;;;;;9.07;6.45;;;;;;;16.70;59.69;101337.41;5030407;28;20053;-79
2023/06/10 02:18:56;;;;;;;9.63;6.53;;;;;;;16.63;59.61;101329.31;5028770;28;20075;-79
2023/06/10 02:21:21;;;;;;;11.68;6.30;;;;;;;16.60;59.77;101331.66;5025723;28;20030;-79
2023/06/10 02:23:47;;;;;;;9.95;6.68;;;;;;;16.58;60.16;101337.31;5028498;28;20485;-78
2023/06/10 02:26:12;;;;;;;8.32;6.25;;;;;;;16.52;60.35;101341.78;5018022;28;20042;-78
2023/06/10 02:28:38;;;;;;;8.85;6.03;;;;;;;16.54;60.29;101333.38;5035885;28;20030;-78
2023/06/10 02:31:03;;;;;;;8.60;6.20;;;;;;;16.55;60.36;101339.66;5034204;28;20106;-78
2023/06/10 02:33:28;;;;;;;8.77;5.93;;;;;;;16.47;60.58;101348.94;5014229;28;20034;-78
2023/06/10 02:35:55;;;;;;;7.43;5.57;;;;;;;16.44;60.52;101344.75;5026719;28;20421;-78
2023/06/10 02:38:20;;;;;;;8.07;6.20;;;;;;;16.37;60.85;101342.13;5034571;28;20025;-78
2023/06/10 02:40:46;;;;;;;10.77;6.40;;;;;;;16.32;61.33;101341.97;5033096;28;20034;-78
2023/06/10 02:43:12;;;;;;;9.48;6.28;;;;;;;16.25;61.21;101343.91;5034888;28;20017;-78
2023/06/10 02:45:37;;;;;;;11.38;6.38;;;;;;;16.19;61.65;101342.91;5034288;28;20034;-78
2023/06/10 02:48:02;;;;;;;9.77;6.40;;;;;;;16.20;61.72;101346.47;5032706;28;20021;-78
2023/06/10 02:50:28;;;;;;;10.45;6.80;;;;;;;16.18;61.99;101352.13;5017269;28;20115;-78
2023/06/10 02:52:57;;;;;;;8.48;6.40;;;;;;;16.12;62.29;101352.19;5014515;28;20080;-78
2023/06/10 02:55:26;;;;;;;10.88;7.22;;;;;;;16.11;62.36;101348.63;5013788;28;20100;-78
2023/06/10 02:57:51;;;;;;;10.15;6.38;;;;;;;16.14;62.47;101347.38;5014843;28;20030;-78
2023/06/10 03:00:17;;;;;;;7.93;6.28;;;;;;;16.12;62.43;101347.56;5033781;28;20022;-78
2023/06/10 03:02:42;;;;;;;9.07;6.70;;;;;;;16.12;62.20;101346.75;5014611;28;20040;-79
2023/06/10 03:05:10;;;;;;;11.10;6.85;;;;;;;16.12;62.70;101352.19;5020764;28;20043;-78
2023/06/10 03:07:37;;;;;;;7.82;6.20;;;;;;;16.12;62.59;101349.47;5034000;28;20025;-78
2023/06/10 03:10:02;;;;;;;11.98;6.40;;;;;;;16.14;62.72;101350.91;5033688;28;20057;-79
2023/06/10 03:12:28;;;;;;;10.15;6.65;;;;;;;16.13;62.71;101356.56;5034510;28;20037;-78
2023/06/10 03:14:53;;;;;;;12.13;6.40;;;;;;;16.11;62.80;101351.34;5032466;28;20469;-78
2023/06/10 03:17:18;;;;;;;9.60;7.00;;;;;;;16.09;63.13;101356.16;5032906;28;20034;-78
2023/06/10 03:19:44;;;;;;;10.35;6.47;;;;;;;16.06;63.17;101354.72;5033504;28;20479;-78
2023/06/10 03:22:14;;;;;;;11.25;6.93;;;;;;;16.03;63.35;101360.59;5033269;28;20049;-78
2023/06/10 03:24:43;;;;;;;9.32;6.10;;;;;;;16.03;63.55;101357.06;5021628;28;20030;-77
2023/06/10 03:27:09;;;;;;;11.00;6.07;;;;;;;16.00;63.58;101360.22;5026068;28;20022;-77
2023/06/10 03:29:35;;;;;;;8.02;6.30;;;;;;;15.96;63.62;101358.97;5025784;28;20037;-77
2023/06/10 03:32:01;;;;;;;8.25;6.05;;;;;;;15.95;64.01;101362.75;5033477;28;20394;-78
2023/06/10 03:34:26;;;;;;;7.60;5.93;;;;;;;15.99;63.85;101362.09;5033199;28;20021;-77
2023/06/10 03:36:52;;;;;;;9.40;6.47;;;;;;;15.99;64.16;101362.09;5033365;28;20351;-78
2023/06/10 03:39:17;;;;;;;9.90;6.50;;;;;;;16.00;64.03;101360.22;5032146;28;20030;-78
2023/06/10 03:41:42;;;;;;;9.15;6.18;;;;;;;16.00;64.05;101360.22;5033128;28;20408;-78
2023/06/10 03:44:08;;;;;;;10.55;6.72;;;;;;;16.05;64.10;101360.38;5033280;28;20044;-78
2023/06/10 03:46:33;;;;;;;9.60;6.43;;;;;;;16.02;64.13;101364.34;5033400;28;20026;-78
2023/06/10 03:49:00;;;;;;;12.10;6.20;;;;;;;16.05;64.38;101368.53;5034086;28;20453;-78
2023/06/10 03:51:26;;;;;;;10.43;6.82;;;;;;;16.07;64.29;101363.69;5021640;28;20056;-78
2023/06/10 03:53:51;;;;;;;7.78;6.50;;;;;;;16.12;64.12;101368.47;5023752;28;20033;-77
2023/06/10 03:56:17;;;;;;;12.30;6.75;;;;;;;16.15;64.09;101373.47;5033403;28;20033;-78
2023/06/10 03:58:42;;;;;;;10.48;6.13;;;;;;;16.18;64.21;101368.41;5033458;28;20385;-78
2023/06/10 04:01:08;;;;;;;9.13;6.63;;;;;;;16.18;63.96;101367.56;5033769;28;20048;-77
2023/06/10 04:03:33;;;;;;;8.88;6.15;;;;;;;16.17;64.34;101374.91;5023389;28;20448;-78
2023/06/10 04:05:59;;;;;;;9.82;6.55;;;;;;;16.18;64.47;101365.72;5032915;28;20032;-77
2023/06/10 04:08:24;;;;;;;8.70;6.50;;;;;;;16.23;64.10;101375.09;5031125;28;20665;-77
2023/06/10 04:10:49;;;;;;;11.80;7.07;;;;;;;16.25;64.05;101372.94;5029638;28;20034;-78
2023/06/10 04:13:15;;;;;;;10.70;6.55;;;;;;;16.24;64.29;101380.28;5033580;28;20022;-77
2023/06/10 04:15:41;;;;;;;9.25;6.63;;;;;;;16.29;64.06;101375.03;5032661;28;20051;-78
2023/06/10 04:18:06;;;;;;;11.77;6.72;;;;;;;16.31;64.25;101377.50;5030884;28;20033;-77
2023/06/10 04:20:32;;;;;;;13.55;6.80;;;;;;;16.36;63.88;101375.78;5026274;28;20026;-78
2023/06/10 04:22:57;;;;;;;11.15;6.80;;;;;;;16.38;64.25;101381.00;5025664;28;20060;-78
2023/06/10 04:25:24;;;;;;;8.73;6.63;;;;;;;16.41;64.17;101377.84;5031647;28;20045;-78
2023/06/10 04:27:49;;;;;;;10.38;7.45;;;;;;;16.49;63.88;101388.41;5032315;28;20112;-77
2023/06/10 04:30:16;;;;;;;10.45;6.90;;;;;;;16.62;63.62;101383.91;5033382;28;20033;-78
2023/06/10 04:32:44;;;;;;;9.82;6.80;;;;;;;16.77;63.41;101378.94;5030251;28;20022;-77
2023/06/10 04:35:12;;;;;;;8.40;6.60;;;;;;;17.26;61.86;101386.38;5030951;28;20033;-77
2023/06/10 04:37:40;;;;;;;10.73;7.32;;;;;;;17.71;60.14;101387.88;5032287;28;20087;-77
2023/06/10 04:40:07;;;;;;;11.55;6.88;;;;;;;18.35;58.14;101389.22;5014361;28;20063;-78
2023/06/10 04:42:32;;;;;;;13.15;6.82;;;;;;;18.93;56.21;101391.06;5031475;28;20025;-76
2023/06/10 04:44:57;;;;;;;9.75;6.85;;;;;;;19.19;55.78;101385.31;5032259;28;20760;-77
2023/06/10 04:47:23;;;;;;;8.70;6.50;;;;;;;19.23;56.23;101390.09;5020930;28;20139;-77
2023/06/10 04:49:48;;;;;;;10.32;7.10;;;;;;;19.51;54.93;101390.31;5029950;28;20045;-78
2023/06/10 04:52:13;;;;;;;9.43;6.68;;;;;;;19.91;53.90;101394.09;5020010;28;20044;-80
2023/06/10 04:54:39;;;;;;;10.10;6.78;;;;;;;20.33;52.33;101399.13;5026463;28;20043;-82
2023/06/10 04:57:06;;;;;;;10.57;6.90;;;;;;;20.59;51.70;101397.63;5028305;28;20029;-82
2023/06/10 04:59:37;;;;;;;10.07;6.90;;;;;;;20.98;50.85;101407.78;5033227;28;20120;-82
2023/06/10 05:02:03;;;;;;;9.07;6.63;;;;;;;21.28;50.08;101395.53;5030222;28;20108;-82
2023/06/10 05:04:29;;;;;;;10.30;6.80;;;;;;;21.67;48.90;101391.06;5024886;28;20531;-81
2023/06/10 05:06:55;;;;;;;13.00;7.03;;;;;;;21.77;48.22;101394.72;5030059;28;20053;-83
2023/06/10 05:09:20;;;;;;;9.40;6.10;;;;;;;21.99;47.66;101388.31;5032058;28;20022;-83
2023/06/10 05:11:46;;;;;;;10.25;6.53;;;;;;;22.42;47.31;101393.88;5032483;28;20022;-82
2023/06/10 05:14:18;;;;;;;9.10;6.28;;;;;;;23.01;45.83;101398.38;5030605;28;20017;-82
2023/06/10 05:16:44;;;;;;;9.20;6.63;;;;;;;23.22;45.07;101394.91;5032160;28;20021;-82
2023/06/10 05:19:09;;;;;;;9.18;6.32;;;;;;;23.39;44.67;101403.75;5033581;28;20025;-83
2023/06/10 05:21:35;;;;;;;10.32;6.22;;;;;;;23.35;44.58;101394.38;5023729;28;20029;-83
2023/06/10 05:24:00;;;;;;;9.80;6.50;;;;;;;22.95;45.08;101402.16;5031890;28;20042;-82
2023/06/10 05:26:26;;;;;;;7.60;6.05;;;;;;;23.14;45.22;101397.03;5031613;28;20030;-82
2023/06/10 05:28:51;;;;;;;8.07;6.40;;;;;;;23.28;44.57;101405.63;5030660;28;20031;-82
2023/06/10 05:31:19;;;;;;;8.65;6.38;;;;;;;23.35;44.43;101408.13;5017556;28;20377;-82
2023/06/10 05:33:45;;;;;;;9.63;6.18;;;;;;;23.82;43.40;101413.72;5026557;28;20105;-82
2023/06/10 05:36:10;;;;;;;9.25;6.53;;;;;;;23.87;43.24;101403.56;5031167;28;20669;-76
2023/06/10 05:38:38;;;;;;;8.32;6.13;;;;;;;24.36;42.39;101410.44;5029688;28;20029;-83
2023/06/10 05:41:03;;;;;;;8.25;6.53;;;;;;;24.58;41.90;101411.25;5028393;28;20385;-83
2023/06/10 05:43:29;;;;;;;9.60;5.80;;;;;;;24.75;40.96;101405.44;5029638;28;20453;-83
2023/06/10 05:45:54;;;;;;;8.27;5.97;;;;;;;24.64;41.25;101404.63;5031243;28;20400;-82
2023/06/10 05:48:20;;;;;;;7.60;5.88;;;;;;;25.00;40.34;101406.47;5031726;28;20021;-84
2023/06/10 05:50:48;;;;;;;8.70;6.18;;;;;;;24.58;40.82;101411.25;5027066;28;20051;-83
2023/06/10 05:53:17;;;;;;;7.93;5.93;;;;;;;24.27;41.11;101412.13;5025073;28;20377;-85
2023/06/10 05:55:46;;;;;;;9.77;6.32;;;;;;;24.10;41.56;101411.56;5027843;28;20038;-83
2023/06/10 05:58:12;;;;;;;9.25;6.20;;;;;;;24.85;41.29;101416.44;5014234;28;20033;-84
2023/06/10 06:00:40;;;;;;;8.98;6.40;;;;;;;25.44;39.78;101416.75;5028115;28;20049;-84
2023/06/10 06:03:08;;;;;;;8.23;5.90;;;;;;;25.62;39.21;101419.97;5025107;28;20469;-85
2023/06/10 06:05:35;;;;;;;7.10;5.70;;;;;;;25.89;38.37;101405.72;5041550;28;20017;-83
2023/06/10 06:08:07;;;;;;;8.30;5.93;;;;;;;25.76;38.29;101412.72;5036531;28;20021;-84
2023/06/10 06:10:32;;;;;;;9.30;6.00;;;;;;;25.70;38.33;101411.91;5029736;28;20025;-84
2023/06/10 06:12:57;;;;;;;10.05;5.95;;;;;;;25.71;38.03;101412.75;5033030;28;20040;-85
2023/06/10 06:15:23;;;;;;;9.65;5.60;;;;;;;26.01;37.44;101403.44;5030334;28;20026;-85
2023/06/10 06:17:48;;;;;;;7.63;5.53;;;;;;;25.80;36.86;101408.25;5023858;28;20120;-82
2023/06/10 06:20:44;;;;;;;;;;;;;;;;;;;;;
2023/06/10 06:23:13;;;;;;;9.70;6.13;;;;;;;26.87;36.13;101401.25;5015115;28;20046;-81
2023/06/10 06:25:38;;;;;;;7.88;5.65;;;;;;;26.65;36.12;101410.88;4996028;28;20021;-82
2023/06/10 06:28:07;;;;;;;8.43;5.35;;;;;;;27.07;35.32;101409.28;5007854;28;20018;-82
2023/06/10 06:30:32;;;;;;;6.75;5.57;;;;;;;27.47;34.42;101413.78;5008890;28;20068;-81
2023/06/10 06:32:58;;;;;;;7.25;5.28;;;;;;;27.98;34.04;101424.06;4990019;28;20474;-82
2023/06/10 06:35:26;;;;;;;9.02;5.43;;;;;;;28.27;33.00;101419.47;5009191;28;20034;-81
2023/06/10 06:37:51;;;;;;;6.30;5.18;;;;;;;28.27;33.04;101413.94;5010483;28;20176;-82
2023/06/10 06:40:17;;;;;;;6.47;4.97;;;;;;;28.61;32.81;101421.06;4991028;28;20030;-82
2023/06/10 06:42:42;;;;;;;9.52;4.95;;;;;;;28.54;32.29;101429.78;5012600;28;20022;-82
2023/06/10 06:45:08;;;;;;;7.13;5.00;;;;;;;28.52;32.67;101426.47;5006546;28;20034;-82
2023/06/10 06:47:33;;;;;;;10.10;5.13;;;;;;;28.58;32.20;101429.97;5005740;28;20393;-83
2023/06/10 06:50:02;;;;;;;7.68;5.30;;;;;;;28.79;32.12;101430.41;5005353;28;21491;-82
2023/06/10 06:52:27;;;;;;;7.97;5.38;;;;;;;28.95;31.59;101432.88;5007517;28;20140;-81
2023/06/10 06:54:52;;;;;;;6.97;5.30;;;;;;;28.64;32.71;101427.91;5007583;28;20084;-84
2023/06/10 06:57:21;;;;;;;8.07;5.10;;;;;;;29.03;31.28;101432.19;5010064;28;20037;-83
2023/06/10 06:59:46;;;;;;;7.85;5.00;;;;;;;29.65;30.52;101436.41;5001500;28;20038;-84
2023/06/10 07:02:11;;;;;;;6.15;4.50;;;;;;;29.48;31.44;101428.75;5008464;28;20087;-84
2023/06/10 07:04:37;;;;;;;7.72;5.20;;;;;;;29.30;30.78;101428.56;5007562;28;20028;-83
2023/06/10 07:07:02;;;;;;;6.32;4.72;;;;;;;29.32;31.26;101436.53;5007570;28;20038;-85
2023/06/10 07:09:28;;;;;;;6.40;5.13;;;;;;;28.48;31.96;101436.53;5011727;28;20488;-85
2023/06/10 07:11:53;;;;;;;6.22;5.10;;;;;;;29.54;30.54;101432.22;5012045;28;20072;-85
2023/06/10 07:14:18;;;;;;;8.98;5.18;;;;;;;29.91;29.94;101436.63;5012447;28;20026;-85
2023/06/10 07:16:45;;;;;;;7.03;4.70;;;;;;;30.48;29.79;101440.75;5012151;28;20429;-85
2023/06/10 07:19:11;;;;;;;7.03;4.75;;;;;;;30.92;28.45;101435.41;5013427;28;20045;-85
2023/06/10 07:21:37;;;;;;;5.47;4.40;;;;;;;31.75;27.69;101439.34;5013461;28;20477;-85
2023/06/10 07:24:03;;;;;;;6.70;4.68;;;;;;;31.85;27.47;101442.97;5011929;28;20050;-85
2023/06/10 07:26:28;;;;;;;6.30;5.05;;;;;;;31.60;28.28;101446.19;5013487;28;20029;-85
2023/06/10 07:28:54;;;;;;;7.93;4.70;;;;;;;32.08;27.46;101443.59;5011365;28;20045;-85
2023/06/10 07:31:19;;;;;;;6.75;4.90;;;;;;;32.14;27.22;101455.38;5012882;28;20030;-85
2023/06/10 07:33:45;;;;;;;7.47;4.72;;;;;;;31.70;26.89;101458.16;5011896;28;20036;-86
2023/06/10 07:36:10;;;;;;;8.35;4.53;;;;;;;31.39;27.84;101451.56;4990195;28;20030;-83
2023/06/10 07:38:42;;;;;;;8.07;4.45;;;;;;;30.31;29.65;101447.03;5012789;28;20457;-86
2023/06/10 07:41:08;;;;;;;6.68;4.88;;;;;;;31.50;28.04;101443.72;5015681;28;20044;-88
2023/06/10 07:43:33;;;;;;;7.22;4.40;;;;;;;32.47;26.17;101447.28;5011874;28;20022;-88
2023/06/10 07:45:59;;;;;;;5.03;4.50;;;;;;;32.47;25.96;101455.66;5008012;28;20033;-88
2023/06/10 07:48:24;;;;;;;5.30;4.50;;;;;;;31.67;27.08;101442.09;5001036;28;20030;-86
2023/06/10 07:50:51;;;;;;;6.10;4.32;;;;;;;31.93;26.34;101446.88;5014270;28;20042;-85
2023/06/10 07:53:18;;;;;;;6.22;4.50;;;;;;;30.32;28.27;101445.91;5011978;28;20482;-83
2023/06/10 07:55:43;;;;;;;6.53;4.38;;;;;;;30.08;28.82;101454.56;5010040;28;20022;-81
2023/06/10 07:58:10;;;;;;;6.88;4.50;;;;;;;30.69;28.59;101443.00;5014138;28;20017;-81
2023/06/10 08:00:35;;;;;;;5.10;4.18;;;;;;;31.69;27.04;101448.16;5011302;28;20033;-81
2023/06/10 08:03:00;;;;;;;6.32;4.68;;;;;;;32.49;25.60;101455.31;5012571;28;20026;-81
2023/06/10 08:05:26;;;;;;;7.40;4.20;;;;;;;33.02;24.54;101453.13;5011269;28;20034;-86
2023/06/10 08:07:57;;;;;;;8.27;4.07;;;;;;;33.51;24.31;101451.88;5012009;28;20078;-86
2023/06/10 08:10:22;;;;;;;7.78;4.60;;;;;;;32.77;25.10;101447.34;5010249;28;20026;-86
2023/06/10 08:13:02;;;;;;;5.35;4.05;;;;;;;33.39;23.87;101453.41;5007408;28;20034;-85
2023/06/10 08:15:28;;;;;;;7.45;4.10;;;;;;;33.94;23.30;101444.31;5004257;28;20057;-83
2023/06/10 08:18:03;;;;;;;7.32;4.28;;;;;;;34.47;23.35;101455.75;5005281;28;20434;-85
2023/06/10 08:20:28;;;;;;;;;;;;;;;33.60;23.86;101452.63;5010711;28;20040;-82
2023/06/10 08:22:53;;;;;;;4.90;4.50;;;;;;;33.79;23.70;101448.50;5018206;28;19921;-90
2023/06/10 08:25:22;;;;;;;5.47;3.92;;;;;;;33.71;23.66;101451.03;5032032;28;20022;-86
2023/06/10 08:27:47;;;;;;;4.60;3.95;;;;;;;34.29;22.70;101444.75;5032517;28;20846;-93
2023/06/10 08:30:13;;;;;;;9.73;4.53;;;;;;;34.05;23.17;101439.13;5029100;28;20033;-78
2023/06/10 08:32:38;;;;;;;4.10;3.60;;;;;;;33.86;23.14;101444.00;5027476;28;20029;-81
2023/06/10 08:35:04;;;;;;;4.68;3.75;;;;;;;34.91;22.18;101435.63;5023029;28;20087;-81
2023/06/10 08:37:29;;;;;;;7.95;4.20;;;;;;;33.55;23.46;101434.09;5027151;28;20037;-83
2023/06/10 08:39:55;;;;;;;4.50;4.10;;;;;;;33.63;23.46;101435.19;5027608;28;20047;-84
2023/06/10 08:42:28;;;;;;;6.35;3.88;;;;;;;33.75;23.37;101433.59;5029500;28;20655;-84
2023/06/10 08:44:58;;;;;;;7.10;3.83;;;;;;;34.63;22.12;101432.72;5010444;28;20056;-87
2023/06/10 08:47:24;;;;;;;7.57;4.40;;;;;;;34.85;21.09;101425.88;5028885;28;20065;-81
2023/06/10 08:49:50;;;;;;;4.82;3.47;;;;;;;35.76;20.37;101437.81;5020835;28;20437;-83
2023/06/10 08:52:22;;;;;;;9.65;4.75;;;;;;;35.32;20.05;101432.91;5024973;28;20109;-84
2023/06/10 08:54:56;;;;;;;5.50;3.58;;;;;;;34.91;21.02;101435.63;5013900;28;20022;-80
2023/06/10 08:57:22;;;;;;;4.72;3.85;;;;;;;34.14;21.84;101445.41;5022397;28;20087;-81
2023/06/10 08:59:48;;;;;;;6.85;4.60;;;;;;;34.73;20.78;101435.06;5030013;28;20037;-80
2023/06/10 09:02:14;;;;;;;5.75;3.75;;;;;;;34.45;21.11;101449.69;5030669;28;20500;-79
2023/06/10 09:04:42;;;;;;;10.05;4.00;;;;;;;35.26;20.69;101434.34;5031343;28;20339;-80
2023/06/10 09:07:07;;;;;;;4.85;3.53;;;;;;;36.40;19.28;101438.78;5028675;28;20119;-79
2023/06/10 09:09:36;;;;;;;6.93;3.83;;;;;;;36.03;19.27;101439.00;5014047;28;20022;-78
2023/06/10 09:12:03;;;;;;;5.80;3.47;;;;;;;35.75;19.83;101428.63;5013529;28;20124;-81
2023/06/10 09:14:28;;;;;;;5.65;3.33;;;;;;;36.44;19.28;101438.06;5011274;28;20033;-76
2023/06/10 09:16:56;;;;;;;5.57;3.35;;;;;;;36.23;18.98;101430.72;5027183;28;20032;-75
2023/06/10 09:19:22;;;;;;;6.40;3.38;;;;;;;36.85;18.92;101433.09;5029417;28;20469;-75
2023/06/10 09:21:47;;;;;;;6.55;3.60;;;;;;;36.92;18.89;101435.25;5011711;28;20048;-75
2023/06/10 09:24:12;;;;;;;7.93;3.90;;;;;;;35.79;19.72;101435.13;5026358;28;20436;-76
2023/06/10 09:26:38;;;;;;;3.97;3.20;;;;;;;36.04;19.72;101421.00;5013126;28;20138;-76
2023/06/10 09:29:08;;;;;;;5.07;3.50;;;;;;;36.51;18.99;101429.88;5029440;28;20020;-77
2023/06/10 09:31:34;;;;;;;4.30;3.45;;;;;;;36.18;19.10;101422.59;5030029;28;20041;-76
2023/06/10 09:34:13;;;;;;;5.15;3.28;;;;;;;35.99;19.42;101426.91;5031091;28;20025;-76
2023/06/10 09:36:38;;;;;;;4.50;3.30;;;;;;;36.37;18.80;101427.47;5030253;28;20025;-76
2023/06/10 09:39:04;;;;;;;4.90;3.72;;;;;;;36.82;18.54;101428.22;5029585;28;20079;-76
2023/06/10 09:41:34;;;;;;;7.60;3.72;;;;;;;36.81;19.08;101435.00;5030124;28;20014;-76
2023/06/10 09:44:00;;;;;;;5.28;3.40;;;;;;;36.77;18.33;101425.66;5029235;28;20469;-76
2023/06/10 09:46:25;;;;;;;6.90;4.00;;;;;;;36.19;19.46;101424.19;5030108;28;20024;-76
2023/06/10 09:48:50;;;;;;;5.82;4.05;;;;;;;35.94;19.91;101424.31;4993952;28;20100;-77
2023/06/10 09:51:19;;;;;;;6.57;3.75;;;;;;;36.74;19.38;101415.19;5029121;28;20017;-77
2023/06/10 09:53:53;;;;;;;8.32;3.60;;;;;;;37.43;19.14;101428.81;5029537;28;20093;-77
2023/06/10 09:56:19;;;;;;;4.13;3.72;;;;;;;36.89;18.80;101414.31;5029390;28;20131;-77
2023/06/10 09:58:45;;;;;;;5.50;3.78;;;;;;;37.95;18.29;101415.41;5011869;28;20592;-77
2023/06/10 10:01:14;;;;;;;5.07;3.75;;;;;;;38.03;17.99;101428.44;5011184;28;20045;-76
2023/06/10 10:03:46;;;;;;;5.32;3.55;;;;;;;37.40;18.48;101424.72;5028197;28;20104;-77
2023/06/10 10:06:12;;;;;;;6.93;3.90;;;;;;;36.70;18.35;101415.94;5015897;28;20033;-77
2023/06/10 10:08:37;;;;;;;4.15;3.70;;;;;;;37.20;18.24;101418.28;5029511;28;20045;-77
2023/06/10 10:11:03;;;;;;;6.03;3.63;;;;;;;36.80;18.81;101416.53;5029120;28;20474;-76
2023/06/10 10:13:28;;;;;;;6.15;3.60;;;;;;;36.09;19.73;101415.16;5027543;28;20139;-76
2023/06/10 10:15:55;;;;;;;4.88;3.65;;;;;;;34.89;20.80;101416.41;4985741;28;20488;-76
2023/06/10 10:18:22;;;;;;;9.32;4.63;;;;;;;36.29;20.40;101409.66;4994430;28;20033;-77
2023/06/10 10:20:50;;;;;;;5.32;4.18;;;;;;;36.44;18.67;101398.81;5011779;28;20048;-76
2023/06/10 10:23:18;;;;;;;5.03;3.80;;;;;;;35.41;19.75;101407.56;5028433;28;20627;-77
2023/06/10 10:25:44;;;;;;;5.65;3.80;;;;;;;35.05;20.37;101418.53;5011888;28;20055;-77
2023/06/10 10:28:13;;;;;;;8.30;4.43;;;;;;;36.37;19.23;101397.44;4993721;28;20021;-77
2023/06/10 10:31:08;;;;;;;5.10;3.78;;;;;;;36.68;19.82;101409.03;5005295;28;20092;-78
2023/06/10 10:33:48;;;;;;;5.93;3.92;;;;;;;36.53;18.95;101410.69;5012720;28;20111;-77
2023/06/10 10:36:14;;;;;;;6.50;3.67;;;;;;;37.58;17.49;101408.28;5010335;28;20117;-77
2023/06/10 10:38:39;;;;;;;3.97;3.40;;;;;;;36.22;18.10;101401.06;5007303;28;20014;-77
2023/06/10 10:41:05;;;;;;;5.53;3.67;;;;;;;36.70;17.80;101406.69;5012169;28;20265;-77
2023/06/10 10:43:30;;;;;;;4.50;3.88;;;;;;;35.51;17.37;101410.72;4998640;28;20044;-77
2023/06/10 10:46:03;;;;;;;4.80;3.47;;;;;;;36.29;18.15;101406.03;5006258;28;20038;-77
2023/06/10 10:48:40;;;;;;;5.53;3.40;;;;;;;36.78;18.28;101399.25;5020421;28;20043;-77
2023/06/10 10:51:06;;;;;;;5.57;4.05;;;;;;;37.57;17.44;101401.03;5012511;28;20157;-77
2023/06/10 10:53:32;;;;;;;6.25;3.65;;;;;;;37.32;17.57;101409.72;5028151;28;20029;-77
2023/06/10 10:56:08;;;;;;;6.97;3.60;;;;;;;37.41;16.57;101403.88;5010284;28;20351;-77
2023/06/10 10:58:33;;;;;;;4.95;3.65;;;;;;;35.81;18.26;101398.34;5027328;28;20538;-77
2023/06/10 11:00:59;;;;;;;4.68;3.38;;;;;;;36.29;17.93;101384.44;5005112;28;20026;-75
2023/06/10 11:03:28;;;;;;;6.45;3.45;;;;;;;37.10;16.97;101396.38;5030426;28;20767;-75
2023/06/10 11:05:53;;;;;;;4.10;3.70;;;;;;;37.14;15.93;101386.06;5029635;28;20021;-75
2023/06/10 11:08:29;;;;;;;6.80;3.60;;;;;;;37.05;15.88;101396.69;4996614;28;20026;-78
2023/06/10 11:10:54;;;;;;;6.85;4.10;;;;;;;36.78;16.48;101388.84;5027760;28;20060;-78
2023/06/10 11:13:21;;;;;;;5.13;4.15;;;;;;;35.96;15.98;101379.97;5024953;28;20033;-76
2023/06/10 11:15:49;;;;;;;6.35;3.70;;;;;;;36.22;16.57;101378.63;5030982;28;20117;-76
2023/06/10 11:18:24;;;;;;;4.03;3.47;;;;;;;36.97;15.77;101385.28;5029985;28;20091;-76
2023/06/10 11:20:50;;;;;;;4.40;3.85;;;;;;;36.97;16.07;101378.88;5029750;28;20041;-76
2023/06/10 11:23:38;;;;;;;4.47;3.60;;;;;;;37.71;16.58;101382.81;5014762;28;20469;-76